Pagina principale
METAR-TAF:

METAR-TAF

Aeroporti :

Aeroporto di Torino-Caselle

Torino, Italia

latitudine: 45-13N, longitudine: 007-39E, altezza: 301 m

Osservazione

Il bollettino è stato emesso 22 minuti fa, alle 05:50 UTC
Vento 2 kt da nord
Temperature -1°C
Umidità 93%
Pressione 1018 hPa
Visibilità: 5000 m
Nuvoloso ad un'altezza di 4000 ft
foschia

METAR: LIMF 160550Z 35002KT 5000 BR BKN040 M01/M02 Q1018

Ora: 07:12 (06:12 UTC)

Previsione

Il bollettino è stato emesso 1 ora e 12 minuti fa, alle 05:00 UTC
Previsione valida dal 16 alle 06 UTC al 17 alle 06 UTC
Vento 5 kt da direzioni variabili
Visibilità: 5000 m
Nubi sparse ad un'altezza di 2500 ft
Nuvoloso ad un'altezza di 6000 ft
foschia
Temporaneamente
dal 16 alle 16 UTC al 16 alle 24 UTC
Visibilità: 1500 m
Nuvoloso ad un'altezza di 1200 ft
neve

TAF: LIMF 160500Z 1606/1706 VRB05KT 5000 BR SCT025 BKN060 TEMPO 1616/1624 1500 SN BKN012

Osservazioni e previsioni meteorologiche di più di 4000 aeroporti (messaggi METAR e TAF).

Le stazioni disponibili sono rappresentate dai dischi gialli e rossi sulla carta.

Puntare il mouse per vedere il nome della stazione.

Clicca sopra per visualizzare le osservazioni e previsioni meteorologiche.

Per cambiare la mappa : fare clic sui pulsanti verdi con una croce nera per ingrandire, il pulsante verde con un trattino per diminuire, o sulla freccia verde per le mappe adiacenti.


METAR-TAF: